Wells Town, Mississippi
Current Conditions -  °F | °C
As of 9:53 PM on Sunday 21 Dec 2014 (Local Time) from KHBG Reporting Station
Haze Haze  
Wind Chill: 52°   Ceiling: 400
Heat Index: 52°   Visibility: 2.5mi
Dew Point: 51°   Wind: 3mph
Humidity: 97%   Direction: 70°ENE
Pressure: 30"   Gusts: NA
Location:  31.0601°N, 89.4815°W
Report Text: KHBG 220353Z AUTO 07003KT 2 1/2SM BR OVC004 11/11 A3000 RMK AO2 SLP160 T01110106
Loading
Personal Weather Stations






























Interactive Weather Map New forecast layout! Learn more

10-Day Weather Forecast

Advertisements
Track Severe Weather on mobile